createdAt,value
2022-11-08T00:00:25.846Z,76.04
2022-11-08T00:02:28.849Z,76.31
2022-11-08T00:04:32.106Z,75.62
2022-11-08T00:06:52.361Z,76.02
2022-11-08T00:09:12.723Z,76.00
2022-11-08T00:11:34.550Z,76.47
2022-11-08T00:13:54.888Z,76.04
2022-11-08T00:16:00.922Z,76.14
2022-11-08T00:18:03.655Z,75.31
2022-11-08T00:20:08.682Z,75.29
2022-11-08T00:22:12.101Z,75.23
2022-11-08T00:24:14.819Z,75.18
2022-11-08T00:26:18.933Z,75.51
2022-11-08T00:28:22.003Z,75.98
2022-11-08T00:30:24.842Z,75.37
2022-11-08T00:32:28.027Z,75.67
2022-11-08T00:34:30.831Z,76.02
2022-11-08T00:36:33.605Z,75.94
2022-11-08T00:38:36.391Z,75.83
2022-11-08T00:40:39.159Z,75.19
2022-11-08T00:42:43.273Z,75.34
2022-11-08T00:44:46.078Z,75.49
2022-11-08T00:46:48.864Z,75.83
2022-11-08T00:48:51.592Z,75.65
2022-11-08T00:50:54.333Z,75.65
2022-11-08T00:52:57.147Z,76.00
2022-11-08T00:54:59.919Z,75.48
2022-11-08T00:57:02.693Z,75.43
2022-11-08T00:59:06.927Z,75.22
2022-11-08T01:01:11.645Z,75.97
2022-11-08T01:03:20.062Z,75.13
2022-11-08T01:05:22.852Z,75.80
2022-11-08T01:07:25.645Z,75.82
2022-11-08T01:09:28.466Z,75.65
2022-11-08T01:11:31.575Z,75.10
2022-11-08T01:13:35.293Z,75.31
2022-11-08T01:15:41.303Z,75.20
2022-11-08T01:17:44.232Z,75.89
2022-11-08T01:19:47.223Z,75.42
2022-11-08T01:21:49.978Z,75.58
2022-11-08T01:23:54.160Z,74.88
2022-11-08T01:25:56.974Z,75.56
2022-11-08T01:27:59.753Z,75.33
2022-11-08T01:30:02.510Z,75.14
2022-11-08T01:32:06.779Z,75.59
2022-11-08T01:34:09.576Z,75.27
2022-11-08T01:36:13.824Z,75.38
2022-11-08T01:38:16.944Z,75.77
2022-11-08T01:40:19.927Z,75.34
2022-11-08T01:42:28.491Z,75.18
2022-11-08T01:44:31.315Z,75.92
2022-11-08T01:46:42.559Z,75.81
2022-11-08T01:48:50.244Z,75.22
2022-11-08T01:50:53.993Z,75.67
2022-11-08T01:52:56.931Z,75.30
2022-11-08T01:55:14.725Z,75.08
2022-11-08T01:57:23.864Z,75.27
2022-11-08T01:59:27.053Z,75.80
2022-11-08T02:01:30.711Z,75.24
2022-11-08T02:03:35.552Z,75.41
2022-11-08T02:05:40.405Z,75.94
2022-11-08T02:07:43.148Z,75.28
2022-11-08T02:09:48.477Z,75.12
2022-11-08T02:11:52.958Z,75.30
2022-11-08T02:13:56.581Z,75.51
2022-11-08T02:15:59.432Z,75.37
2022-11-08T02:18:03.071Z,75.99
2022-11-08T02:20:07.857Z,75.39
2022-11-08T02:22:18.473Z,75.11
2022-11-08T02:24:22.646Z,75.82
2022-11-08T02:26:29.176Z,75.52
2022-11-08T02:28:39.425Z,75.54
2022-11-08T02:30:42.195Z,75.87
2022-11-08T02:32:46.010Z,75.82
2022-11-08T02:34:52.291Z,75.50
2022-11-08T02:36:55.134Z,75.70
2022-11-08T02:38:58.807Z,75.76
2022-11-08T02:41:02.919Z,75.55
2022-11-08T02:43:05.707Z,75.14
2022-11-08T02:45:09.639Z,75.75
2022-11-08T02:47:12.523Z,75.05
2022-11-08T02:49:15.382Z,74.94
2022-11-08T02:51:18.225Z,75.24
2022-11-08T02:53:21.434Z,75.08
2022-11-08T02:55:24.232Z,75.08
2022-11-08T02:57:28.407Z,74.68
2022-11-08T02:59:31.200Z,75.39
2022-11-08T03:01:34.093Z,75.03
2022-11-08T03:03:36.959Z,75.16
2022-11-08T03:05:39.710Z,75.03
2022-11-08T03:07:42.491Z,75.02
2022-11-08T03:09:45.274Z,75.06
2022-11-08T03:11:48.054Z,75.05
2022-11-08T03:13:52.231Z,75.12
2022-11-08T03:15:55.056Z,75.00
2022-11-08T03:17:58.419Z,75.87
2022-11-08T03:20:01.304Z,75.25
2022-11-08T03:22:04.396Z,75.48
2022-11-08T03:24:08.027Z,75.61
2022-11-08T03:26:10.783Z,75.85
2022-11-08T03:28:13.584Z,75.40
2022-11-08T03:30:17.826Z,75.43
2022-11-08T03:32:20.620Z,75.89
2022-11-08T03:34:23.456Z,75.91
2022-11-08T03:36:26.431Z,75.95
2022-11-08T03:38:29.244Z,75.19
2022-11-08T03:40:32.185Z,75.40
2022-11-08T03:42:35.467Z,75.65
2022-11-08T03:44:38.247Z,75.88
2022-11-08T03:46:42.505Z,75.80
2022-11-08T03:48:45.301Z,75.52
2022-11-08T03:50:48.043Z,76.11
2022-11-08T03:52:52.394Z,76.17
2022-11-08T03:54:55.152Z,75.53
2022-11-08T03:56:57.916Z,75.68
2022-11-08T03:59:00.676Z,75.14
2022-11-08T04:01:05.717Z,75.18
2022-11-08T04:03:10.422Z,74.92
2022-11-08T04:05:14.115Z,75.08
2022-11-08T04:07:16.908Z,75.01
2022-11-08T04:09:21.647Z,75.22
2022-11-08T04:11:42.701Z,75.69
2022-11-08T04:14:02.898Z,75.14
2022-11-08T04:16:06.416Z,75.66
2022-11-08T04:18:39.492Z,75.43
2022-11-08T04:21:01.185Z,75.61
2022-11-08T04:23:05.060Z,75.91
2022-11-08T04:25:08.689Z,76.25
2022-11-08T04:27:11.470Z,75.75
2022-11-08T04:29:14.481Z,75.82
2022-11-08T04:31:19.256Z,75.70
2022-11-08T04:33:23.485Z,75.86
2022-11-08T04:35:26.358Z,76.11
2022-11-08T04:37:29.114Z,75.83
2022-11-08T04:39:31.841Z,75.73
2022-11-08T04:41:34.686Z,75.34
2022-11-08T04:43:38.065Z,75.04
2022-11-08T04:45:40.885Z,75.50
2022-11-08T04:47:48.488Z,74.73
2022-11-08T04:49:52.706Z,75.31
2022-11-08T04:51:55.547Z,74.52
2022-11-08T04:54:00.118Z,75.26
2022-11-08T04:56:05.487Z,75.36
2022-11-08T04:58:08.287Z,75.51
2022-11-08T05:00:12.381Z,75.02
2022-11-08T05:02:15.368Z,74.86
2022-11-08T05:04:18.462Z,74.92
2022-11-08T05:06:24.326Z,74.63
2022-11-08T05:08:27.117Z,74.72
2022-11-08T05:10:29.912Z,74.39
2022-11-08T05:12:32.682Z,74.18
2022-11-08T05:14:35.427Z,74.09
2022-11-08T05:16:38.248Z,74.65
2022-11-08T05:18:42.149Z,74.49
2022-11-08T05:21:02.787Z,74.78
2022-11-08T05:23:24.336Z,74.95
2022-11-08T05:25:27.111Z,74.73
2022-11-08T05:27:29.976Z,75.42
2022-11-08T05:29:32.941Z,75.44
2022-11-08T05:31:36.032Z,75.33
2022-11-08T05:33:38.994Z,75.49
2022-11-08T05:35:41.848Z,75.29
2022-11-08T05:37:44.663Z,74.95
2022-11-08T05:39:48.826Z,75.69
2022-11-08T05:41:51.617Z,75.53
2022-11-08T05:43:55.815Z,75.78
2022-11-08T05:45:58.838Z,75.84
2022-11-08T05:48:03.832Z,75.76
2022-11-08T05:50:07.894Z,75.79
2022-11-08T05:52:10.711Z,75.42
2022-11-08T05:54:14.007Z,74.90
2022-11-08T05:56:18.554Z,75.15
2022-11-08T05:58:21.300Z,74.84
2022-11-08T06:00:24.332Z,74.98
2022-11-08T06:02:27.296Z,74.80
2022-11-08T06:04:30.241Z,74.69
2022-11-08T06:06:33.016Z,74.42
2022-11-08T06:08:36.411Z,73.67
2022-11-08T06:10:39.198Z,73.59
2022-11-08T06:12:43.316Z,73.91
2022-11-08T06:14:46.119Z,74.27
2022-11-08T06:16:48.939Z,74.41
2022-11-08T06:18:51.865Z,74.77
2022-11-08T06:20:54.696Z,74.47
2022-11-08T06:22:57.513Z,74.79
2022-11-08T06:25:00.642Z,74.39
2022-11-08T06:27:03.979Z,74.94
2022-11-08T06:29:08.389Z,74.97
2022-11-08T06:31:11.128Z,74.85
2022-11-08T06:33:14.041Z,75.32
2022-11-08T06:35:16.914Z,75.03
2022-11-08T06:37:20.107Z,74.75
2022-11-08T06:39:22.958Z,74.64
2022-11-08T06:41:29.854Z,74.66
2022-11-08T06:43:32.796Z,74.24
2022-11-08T06:45:38.706Z,74.30
2022-11-08T06:47:41.461Z,74.55
2022-11-08T06:49:44.374Z,74.91
2022-11-08T06:51:47.116Z,74.88
2022-11-08T06:53:49.920Z,74.97
2022-11-08T06:55:52.701Z,74.98
2022-11-08T06:57:55.975Z,74.90
2022-11-08T06:59:58.738Z,75.04
2022-11-08T07:02:03.010Z,75.15
2022-11-08T07:04:06.410Z,75.60
2022-11-08T07:06:09.671Z,75.16
2022-11-08T07:08:12.611Z,75.46
2022-11-08T07:10:15.555Z,75.09
2022-11-08T07:12:18.306Z,75.42
2022-11-08T07:14:21.198Z,74.86
2022-11-08T07:16:23.942Z,74.83
2022-11-08T07:18:28.371Z,74.80
2022-11-08T07:20:31.639Z,74.97
2022-11-08T07:22:34.389Z,74.55
2022-11-08T07:24:37.218Z,74.66
2022-11-08T07:26:40.000Z,74.88
2022-11-08T07:28:42.887Z,75.41
2022-11-08T07:30:46.472Z,75.09
2022-11-08T07:32:49.278Z,75.62
2022-11-08T07:34:53.418Z,75.38
2022-11-08T07:36:56.146Z,75.71
2022-11-08T07:39:02.430Z,75.72
2022-11-08T07:41:09.941Z,75.16
2022-11-08T07:43:13.311Z,75.32
2022-11-08T07:45:16.230Z,75.48
2022-11-08T07:47:18.985Z,75.10
2022-11-08T07:49:21.940Z,75.20
2022-11-08T07:51:26.166Z,74.54
2022-11-08T07:53:31.375Z,75.24
2022-11-08T07:55:36.989Z,74.11
2022-11-08T07:57:39.727Z,74.16
2022-11-08T07:59:42.527Z,73.82
2022-11-08T08:01:45.277Z,74.07
2022-11-08T08:03:48.017Z,73.99
2022-11-08T08:05:58.034Z,73.79
2022-11-08T08:08:05.373Z,74.05
2022-11-08T08:10:09.146Z,73.19
2022-11-08T08:12:12.110Z,73.07
2022-11-08T08:14:14.895Z,72.89
2022-11-08T08:16:17.666Z,72.69
2022-11-08T08:18:21.630Z,73.30
2022-11-08T08:20:24.660Z,72.68
2022-11-08T08:22:27.417Z,72.30
2022-11-08T08:24:31.530Z,72.74
2022-11-08T08:26:34.422Z,72.88
2022-11-08T08:28:37.306Z,72.65
2022-11-08T08:30:40.790Z,73.38
2022-11-08T08:32:43.714Z,73.06
2022-11-08T08:34:46.474Z,73.86
2022-11-08T08:36:49.282Z,73.76
2022-11-08T08:38:52.115Z,73.15
2022-11-08T08:40:56.227Z,72.69
2022-11-08T08:43:00.933Z,73.70
2022-11-08T08:45:03.670Z,72.26
2022-11-08T08:47:06.526Z,72.43
2022-11-08T08:49:09.292Z,72.53
2022-11-08T08:51:12.086Z,71.57
2022-11-08T08:53:15.048Z,71.47
2022-11-08T08:55:18.833Z,71.38
2022-11-08T08:57:22.954Z,69.66
2022-11-08T09:01:48.416Z,70.67
2022-11-08T09:03:51.229Z,70.48
2022-11-08T09:05:54.358Z,70.29
2022-11-08T09:07:57.110Z,69.58
2022-11-08T09:10:01.047Z,69.60
2022-11-08T09:12:04.116Z,69.75
2022-11-08T09:14:08.293Z,69.13
2022-11-08T09:16:13.483Z,69.18
2022-11-08T09:18:17.471Z,69.10
2022-11-08T09:20:20.474Z,69.07
2022-11-08T09:22:23.542Z,69.02
2022-11-08T09:24:26.397Z,69.00
2022-11-08T09:26:29.119Z,68.96
2022-11-08T09:28:33.687Z,69.11
2022-11-08T09:30:37.896Z,69.26
2022-11-08T09:32:59.675Z,68.74
2022-11-08T09:35:06.527Z,68.02
2022-11-08T09:37:09.395Z,67.96
2022-11-08T09:39:12.189Z,67.09
2022-11-08T09:41:43.154Z,67.42
2022-11-08T09:44:08.924Z,66.65
2022-11-08T09:46:17.048Z,65.97
2022-11-08T09:48:27.616Z,65.89
2022-11-08T09:50:38.643Z,66.33
2022-11-08T09:52:44.328Z,66.24
2022-11-08T09:54:48.563Z,66.87
2022-11-08T09:56:54.229Z,66.59
2022-11-08T09:59:02.142Z,65.08
2022-11-08T10:01:05.394Z,64.86
2022-11-08T10:03:14.331Z,64.94
2022-11-08T10:05:19.995Z,65.08
2022-11-08T10:07:33.787Z,64.70
2022-11-08T10:10:08.905Z,64.86
2022-11-08T10:12:22.325Z,65.33
2022-11-08T10:14:48.966Z,65.64
2022-11-08T10:17:02.163Z,65.09
2022-11-08T10:19:25.153Z,64.20
2022-11-08T10:21:44.380Z,64.38
2022-11-08T10:23:54.379Z,63.60
2022-11-08T10:26:01.020Z,63.75
2022-11-08T10:28:07.198Z,62.58
2022-11-08T10:30:28.304Z,61.79
2022-11-08T10:32:34.339Z,62.35
2022-11-08T10:34:45.143Z,62.33
2022-11-08T10:36:50.813Z,61.96
2022-11-08T10:39:03.695Z,61.51
2022-11-08T10:41:14.254Z,62.26
2022-11-08T10:43:23.529Z,60.95
2022-11-08T10:45:26.589Z,61.43
2022-11-08T10:47:32.268Z,61.39
2022-11-08T10:49:38.240Z,61.75
2022-11-08T10:51:43.768Z,60.68
2022-11-08T10:53:46.546Z,61.43
2022-11-08T10:55:51.946Z,60.92
2022-11-08T10:57:54.741Z,61.26
2022-11-08T10:59:58.680Z,60.96
2022-11-08T11:02:01.771Z,61.01
2022-11-08T11:04:25.904Z,60.26
2022-11-08T11:06:30.827Z,62.11
2022-11-08T11:08:35.030Z,61.40
2022-11-08T11:10:39.441Z,60.55
2022-11-08T11:12:42.312Z,60.35
2022-11-08T11:14:45.125Z,58.92
2022-11-08T11:16:56.583Z,59.14
2022-11-08T11:19:02.285Z,58.07
2022-11-08T11:21:11.036Z,59.69
2022-11-08T11:23:14.160Z,58.85
2022-11-08T11:25:20.515Z,58.87
2022-11-08T11:27:28.540Z,58.40
2022-11-08T11:29:34.185Z,58.41
2022-11-08T11:31:38.472Z,59.41
2022-11-08T11:33:46.018Z,58.63
2022-11-08T11:35:52.939Z,59.29
2022-11-08T11:37:57.744Z,59.41
2022-11-08T11:40:12.843Z,58.90
2022-11-08T11:42:44.491Z,59.16
2022-11-08T11:44:56.413Z,59.20
2022-11-08T11:47:05.576Z,58.82
2022-11-08T11:49:21.304Z,59.03
2022-11-08T11:51:28.079Z,59.77
2022-11-08T11:53:33.493Z,59.28
2022-11-08T11:55:55.367Z,59.11
2022-11-08T11:58:08.872Z,59.24
2022-11-08T12:00:14.659Z,60.06
2022-11-08T12:02:42.563Z,59.68
2022-11-08T12:05:05.776Z,60.02
2022-11-08T12:07:16.632Z,60.45
2022-11-08T12:09:33.329Z,60.07
2022-11-08T12:11:47.156Z,60.75
2022-11-08T12:14:08.288Z,59.76
2022-11-08T12:16:18.280Z,59.57
2022-11-08T12:18:43.214Z,59.54
2022-11-08T12:20:58.637Z,59.11
2022-11-08T12:23:19.280Z,59.88
2022-11-08T12:25:27.548Z,59.73
2022-11-08T12:27:40.982Z,60.82
2022-11-08T12:29:53.508Z,61.03
2022-11-08T12:32:14.447Z,61.68
2022-11-08T12:34:24.141Z,61.80
2022-11-08T12:36:36.419Z,61.73
2022-11-08T12:38:48.437Z,62.38
2022-11-08T12:40:58.711Z,61.84
2022-11-08T12:43:12.603Z,62.05
2022-11-08T12:45:39.491Z,60.38
2022-11-08T12:47:46.902Z,61.47
2022-11-08T12:49:57.973Z,61.88
2022-11-08T12:52:13.816Z,62.38
2022-11-08T12:54:22.896Z,62.42
2022-11-08T12:56:30.815Z,62.26
2022-11-08T12:58:40.047Z,61.41
2022-11-08T13:00:45.733Z,61.85
2022-11-08T13:03:01.555Z,60.98
2022-11-08T13:05:09.646Z,62.04
2022-11-08T13:07:22.488Z,62.12
2022-11-08T13:09:37.412Z,61.27
2022-11-08T13:11:48.018Z,62.46
2022-11-08T13:13:53.916Z,61.74
2022-11-08T13:16:14.476Z,61.37
2022-11-08T13:18:32.625Z,61.46
2022-11-08T13:20:40.002Z,61.79
2022-11-08T13:22:44.977Z,61.23
2022-11-08T13:24:47.767Z,61.31
2022-11-08T13:26:51.406Z,61.61
2022-11-08T13:28:56.230Z,60.98
2022-11-08T13:31:03.727Z,61.11
2022-11-08T13:33:16.192Z,61.18
2022-11-08T13:35:26.275Z,61.19
2022-11-08T13:37:42.892Z,60.87
2022-11-08T13:40:08.201Z,59.98
2022-11-08T13:42:30.498Z,60.36
2022-11-08T13:44:59.836Z,59.59
2022-11-08T13:47:02.696Z,60.44
2022-11-08T13:49:15.993Z,60.56
2022-11-08T13:51:32.464Z,60.74
2022-11-08T13:53:54.719Z,59.40
2022-11-08T13:55:59.975Z,60.16
2022-11-08T13:58:03.099Z,60.49
2022-11-08T14:00:10.912Z,59.98
2022-11-08T14:02:31.429Z,59.48
2022-11-08T14:04:40.149Z,60.07
2022-11-08T14:06:54.885Z,60.71
2022-11-08T14:09:05.996Z,60.41
2022-11-08T14:11:32.533Z,60.40
2022-11-08T14:13:43.682Z,60.52
2022-11-08T14:15:54.262Z,59.17
2022-11-08T14:18:01.029Z,59.29
2022-11-08T14:20:31.257Z,60.38
2022-11-08T14:22:35.541Z,61.29
2022-11-08T14:24:39.244Z,61.05
2022-11-08T14:26:47.097Z,60.69
2022-11-08T14:28:51.908Z,60.65
2022-11-08T14:30:54.731Z,60.79
2022-11-08T14:33:08.750Z,59.75
2022-11-08T14:35:21.335Z,60.58
2022-11-08T14:37:28.446Z,60.71
2022-11-08T14:39:33.310Z,60.16
2022-11-08T14:41:37.338Z,61.08
2022-11-08T14:43:44.828Z,61.00
2022-11-08T14:45:48.087Z,60.25
2022-11-08T14:47:53.895Z,60.44
2022-11-08T14:49:57.472Z,60.46
2022-11-08T14:52:07.838Z,61.31
2022-11-08T14:54:17.795Z,61.17
2022-11-08T14:56:22.274Z,60.25
2022-11-08T14:58:28.738Z,61.17
2022-11-08T15:00:31.722Z,61.38
2022-11-08T15:02:34.833Z,61.48
2022-11-08T15:04:41.231Z,61.30
2022-11-08T15:06:46.399Z,60.71
2022-11-08T15:08:51.791Z,60.62
2022-11-08T15:10:59.146Z,61.24
2022-11-08T15:13:02.263Z,60.97
2022-11-08T15:15:05.574Z,61.86
2022-11-08T15:17:08.446Z,61.90
2022-11-08T15:19:29.503Z,61.44
2022-11-08T15:21:33.264Z,61.63
2022-11-08T15:23:41.491Z,61.61
2022-11-08T15:25:44.354Z,61.36
2022-11-08T15:27:50.134Z,61.69
2022-11-08T15:29:54.794Z,62.04
2022-11-08T15:32:01.847Z,61.85
2022-11-08T15:34:05.541Z,61.80
2022-11-08T15:36:14.211Z,61.67
2022-11-08T15:38:29.452Z,62.68
2022-11-08T15:40:38.562Z,62.79
2022-11-08T15:42:44.970Z,62.61
2022-11-08T15:45:04.782Z,62.51
2022-11-08T15:47:35.653Z,63.70
2022-11-08T15:49:38.467Z,64.19
2022-11-08T15:51:41.225Z,63.71
2022-11-08T15:53:44.048Z,64.43
2022-11-08T15:55:51.693Z,63.36
2022-11-08T15:57:55.591Z,64.07
2022-11-08T15:59:58.961Z,64.33
2022-11-08T16:02:03.898Z,65.13
2022-11-08T16:04:10.719Z,64.84
2022-11-08T16:06:14.153Z,64.23
2022-11-08T16:08:20.333Z,64.12
2022-11-08T16:10:30.134Z,64.71
2022-11-08T16:12:33.123Z,64.27
2022-11-08T16:14:36.066Z,64.65
2022-11-08T16:16:38.893Z,64.48
2022-11-08T16:18:43.250Z,64.63
2022-11-08T16:20:46.173Z,64.62
2022-11-08T16:22:48.910Z,65.00
2022-11-08T16:24:51.644Z,64.58
2022-11-08T16:26:54.518Z,65.33
2022-11-08T16:28:57.419Z,64.92
2022-11-08T16:31:00.251Z,65.37
2022-11-08T16:33:07.174Z,65.87
2022-11-08T16:35:11.715Z,65.84
2022-11-08T16:37:14.510Z,65.85
2022-11-08T16:39:19.017Z,65.86
2022-11-08T16:41:22.320Z,65.86
2022-11-08T16:43:25.299Z,66.67
2022-11-08T16:45:50.495Z,65.94
2022-11-08T16:47:52.261Z,66.56
2022-11-08T16:49:57.501Z,66.65
2022-11-08T16:52:01.643Z,66.00
2022-11-08T16:54:05.081Z,66.06
2022-11-08T16:56:08.015Z,65.79
2022-11-08T16:58:10.877Z,66.62
2022-11-08T17:00:17.763Z,66.88
2022-11-08T17:02:25.768Z,66.85
2022-11-08T17:04:28.585Z,66.85
2022-11-08T17:06:31.436Z,66.74
2022-11-08T17:08:35.677Z,66.83
2022-11-08T17:10:38.510Z,66.94
2022-11-08T17:12:41.392Z,66.72
2022-11-08T17:14:44.226Z,66.75
2022-11-08T17:16:48.216Z,67.12
2022-11-08T17:18:53.372Z,67.00
2022-11-08T17:20:56.449Z,67.31
2022-11-08T17:22:59.215Z,67.34
2022-11-08T17:25:03.683Z,67.27
2022-11-08T17:27:06.469Z,67.34
2022-11-08T17:29:09.326Z,67.79
2022-11-08T17:31:13.840Z,67.43
2022-11-08T17:33:17.058Z,67.94
2022-11-08T17:35:20.086Z,67.90
2022-11-08T17:37:22.886Z,68.10
2022-11-08T17:39:25.989Z,68.21
2022-11-08T17:41:31.226Z,67.91
2022-11-08T17:43:34.872Z,67.55
2022-11-08T17:45:38.198Z,67.40
2022-11-08T17:47:42.199Z,68.04
2022-11-08T17:49:44.968Z,67.80
2022-11-08T17:51:47.740Z,68.22
2022-11-08T17:53:50.508Z,68.08
2022-11-08T17:55:54.975Z,68.46
2022-11-08T17:57:59.114Z,68.21
2022-11-08T18:00:02.109Z,68.59
2022-11-08T18:02:15.865Z,68.44
2022-11-08T18:04:18.868Z,68.55
2022-11-08T18:06:21.635Z,68.83
2022-11-08T18:08:27.046Z,68.40
2022-11-08T18:10:30.161Z,68.17
2022-11-08T18:12:33.566Z,68.25
2022-11-08T18:14:37.740Z,67.52
2022-11-08T18:16:40.521Z,67.89
2022-11-08T18:18:43.967Z,67.65
2022-11-08T18:20:53.181Z,67.81
2022-11-08T18:22:56.297Z,67.89
2022-11-08T18:24:59.066Z,67.67
2022-11-08T18:27:02.061Z,67.35
2022-11-08T18:29:06.086Z,67.64
2022-11-08T18:31:11.917Z,68.75
2022-11-08T18:33:14.728Z,68.75
2022-11-08T18:35:17.601Z,68.65
2022-11-08T18:37:20.412Z,68.48
2022-11-08T18:39:23.340Z,68.92
2022-11-08T18:41:28.693Z,70.24
2022-11-08T18:43:31.882Z,69.95
2022-11-08T18:45:34.660Z,69.59
2022-11-08T18:47:38.785Z,69.96
2022-11-08T18:49:41.543Z,69.47
2022-11-08T18:51:44.339Z,69.72
2022-11-08T18:53:47.214Z,69.27
2022-11-08T18:55:49.993Z,69.67
2022-11-08T18:57:52.763Z,69.65
2022-11-08T19:00:00.692Z,69.66
2022-11-08T19:02:04.404Z,69.54
2022-11-08T19:04:09.067Z,69.74
2022-11-08T19:06:12.032Z,69.83
2022-11-08T19:08:15.219Z,69.72
2022-11-08T19:10:18.157Z,69.95
2022-11-08T19:12:21.043Z,70.03
2022-11-08T19:14:23.972Z,70.28
2022-11-08T19:16:26.822Z,70.03
2022-11-08T19:18:30.505Z,70.65
2022-11-08T19:20:34.600Z,70.71
2022-11-08T19:22:37.698Z,70.27
2022-11-08T19:24:40.499Z,69.66
2022-11-08T19:26:43.317Z,70.20
2022-11-08T19:28:47.047Z,69.69
2022-11-08T19:30:51.263Z,69.40
2022-11-08T19:32:54.093Z,69.35
2022-11-08T19:34:56.856Z,69.18
2022-11-08T19:37:01.038Z,69.07
2022-11-08T19:39:03.894Z,68.68
2022-11-08T19:41:08.452Z,68.35
2022-11-08T19:43:11.195Z,67.92
2022-11-08T19:45:13.972Z,68.34
2022-11-08T19:47:16.759Z,68.23
2022-11-08T19:49:25.153Z,68.23
2022-11-08T19:51:30.330Z,68.84
2022-11-08T19:53:35.034Z,68.90
2022-11-08T19:55:37.669Z,68.83
2022-11-08T19:57:40.445Z,68.95
2022-11-08T19:59:43.250Z,69.25
2022-11-08T20:01:46.862Z,69.24
2022-11-08T20:03:50.177Z,69.38
2022-11-08T20:05:53.432Z,69.49
2022-11-08T20:07:56.290Z,69.67
2022-11-08T20:10:00.392Z,69.49
2022-11-08T20:12:05.577Z,69.32
2022-11-08T20:14:09.486Z,69.37
2022-11-08T20:16:14.195Z,69.51
2022-11-08T20:18:17.390Z,69.74
2022-11-08T20:20:20.524Z,69.52
2022-11-08T20:22:23.261Z,69.62
2022-11-08T20:24:26.082Z,69.26
2022-11-08T20:26:30.299Z,69.29
2022-11-08T20:28:34.407Z,68.80
2022-11-08T20:30:41.349Z,69.08
2022-11-08T20:32:44.162Z,68.50
2022-11-08T20:34:47.647Z,68.54
2022-11-08T20:36:50.598Z,68.65
2022-11-08T20:38:56.230Z,68.91
2022-11-08T20:40:59.882Z,68.39
2022-11-08T20:43:04.027Z,68.36
2022-11-08T20:45:12.088Z,68.33
2022-11-08T20:47:17.581Z,68.53
2022-11-08T20:49:20.357Z,68.34
2022-11-08T20:51:23.156Z,68.33
2022-11-08T20:53:26.088Z,68.51
2022-11-08T20:55:29.415Z,68.12
2022-11-08T20:57:32.274Z,68.26
2022-11-08T20:59:36.415Z,68.16
2022-11-08T21:01:39.286Z,68.58
2022-11-08T21:03:43.247Z,68.04
2022-11-08T21:05:51.157Z,68.09
2022-11-08T21:08:13.195Z,67.91
2022-11-08T21:10:41.029Z,68.24
2022-11-08T21:12:39.511Z,67.86
2022-11-08T21:14:43.660Z,67.91
2022-11-08T21:17:15.098Z,67.92
2022-11-08T21:19:09.246Z,68.18
2022-11-08T21:21:13.960Z,67.96
2022-11-08T21:23:16.675Z,68.37
2022-11-08T21:25:21.132Z,68.27
2022-11-08T21:27:29.379Z,68.01
2022-11-08T21:29:32.783Z,68.43
2022-11-08T21:31:37.001Z,67.98
2022-11-08T21:33:40.216Z,68.49
2022-11-08T21:35:43.052Z,68.45
2022-11-08T21:37:45.871Z,68.63
2022-11-08T21:39:48.728Z,68.86
2022-11-08T21:41:51.729Z,69.62
2022-11-08T21:43:54.519Z,70.57
2022-11-08T21:45:57.263Z,71.14
2022-11-08T21:48:01.627Z,71.72
2022-11-08T21:50:05.115Z,71.96
2022-11-08T21:52:08.132Z,72.25
2022-11-08T21:54:10.905Z,72.39
2022-11-08T21:56:14.199Z,72.97
2022-11-08T21:58:17.185Z,73.52
2022-11-08T22:00:20.355Z,73.38
2022-11-08T22:02:23.135Z,73.62
2022-11-08T22:04:27.267Z,74.55
2022-11-08T22:06:30.317Z,73.63
2022-11-08T22:08:33.113Z,73.67
2022-11-08T22:10:35.850Z,74.63
2022-11-08T22:12:38.738Z,74.68
2022-11-08T22:14:41.495Z,75.21
2022-11-08T22:16:44.336Z,75.31
2022-11-08T22:21:28.809Z,74.64
2022-11-08T22:23:31.572Z,74.51
2022-11-08T22:25:34.350Z,74.78
2022-11-08T22:27:37.210Z,74.40
2022-11-08T22:29:39.975Z,75.04
2022-11-08T22:31:43.215Z,75.68
2022-11-08T22:33:45.956Z,75.58
2022-11-08T22:35:49.705Z,75.55
2022-11-08T22:37:53.898Z,75.71
2022-11-08T22:39:56.760Z,76.40
2022-11-08T22:41:59.567Z,76.33
2022-11-08T22:44:03.383Z,76.28
2022-11-08T22:46:07.862Z,76.41
2022-11-08T22:48:11.618Z,76.21
2022-11-08T22:50:14.383Z,76.06
2022-11-08T22:52:17.156Z,76.52
2022-11-08T22:54:21.246Z,76.60
2022-11-08T22:56:24.014Z,76.54
2022-11-08T22:58:26.789Z,76.54
2022-11-08T23:00:29.976Z,76.94
2022-11-08T23:02:33.370Z,76.50
2022-11-08T23:04:36.279Z,76.64
2022-11-08T23:06:39.308Z,76.67
2022-11-08T23:08:42.151Z,76.70
2022-11-08T23:11:04.094Z,76.70
2022-11-08T23:13:26.437Z,76.98
2022-11-08T23:15:46.607Z,76.79
2022-11-08T23:17:49.416Z,77.04
2022-11-08T23:20:09.767Z,76.82
2022-11-08T23:22:32.468Z,76.54
2022-11-08T23:24:35.287Z,76.69
2022-11-08T23:26:59.307Z,76.73
2022-11-08T23:29:19.715Z,77.01
2022-11-08T23:31:37.728Z,76.96
2022-11-08T23:33:43.656Z,76.69
2022-11-08T23:36:00.391Z,76.95
2022-11-08T23:38:03.143Z,77.09
2022-11-08T23:40:24.611Z,77.95
2022-11-08T23:42:46.614Z,77.85
2022-11-08T23:44:49.371Z,77.81
2022-11-08T23:46:52.448Z,77.72
2022-11-08T23:48:55.206Z,77.78
2022-11-08T23:50:57.990Z,77.56
2022-11-08T23:53:00.872Z,78.59
2022-11-08T23:55:05.468Z,78.11
2022-11-08T23:57:08.233Z,78.72
2022-11-08T23:59:13.660Z,78.90
